createdAt,value
2023-03-10T00:02:09.295Z,1.98
2023-03-10T00:04:36.316Z,1.50
2023-03-10T00:07:03.349Z,2.20
2023-03-10T00:09:30.307Z,1.95
2023-03-10T00:11:57.352Z,2.03
2023-03-10T00:14:24.370Z,1.80
2023-03-10T00:16:51.353Z,1.77
2023-03-10T00:19:18.380Z,1.65
2023-03-10T00:21:45.692Z,1.13
2023-03-10T00:24:12.730Z,1.73
2023-03-10T00:26:39.771Z,1.50
2023-03-10T00:29:06.823Z,1.58
2023-03-10T00:31:34.817Z,1.33
2023-03-10T00:34:02.006Z,1.20
2023-03-10T00:36:29.443Z,1.23
2023-03-10T00:38:56.476Z,1.25
2023-03-10T00:41:24.482Z,1.23
2023-03-10T00:43:51.711Z,1.33
2023-03-10T00:46:18.861Z,1.40
2023-03-10T00:48:45.890Z,1.50
2023-03-10T00:51:13.073Z,1.15
2023-03-10T00:53:40.458Z,1.05
2023-03-10T00:56:10.242Z,1.10
2023-03-10T00:58:37.310Z,1.00
2023-03-10T01:01:04.588Z,1.50
2023-03-10T01:03:31.613Z,1.65
2023-03-10T01:05:58.588Z,0.80
2023-03-10T01:08:25.574Z,0.80
2023-03-10T01:10:52.684Z,1.33
2023-03-10T01:13:19.796Z,1.00
2023-03-10T01:15:50.774Z,1.13
2023-03-10T01:18:18.299Z,0.98
2023-03-10T01:20:45.303Z,1.02
2023-03-10T01:23:16.370Z,1.00
2023-03-10T01:25:43.606Z,1.60
2023-03-10T01:28:10.830Z,1.17
2023-03-10T01:30:38.001Z,1.23
2023-03-10T01:33:05.093Z,2.63
2023-03-10T01:35:32.251Z,1.30
2023-03-10T01:37:59.305Z,1.02
2023-03-10T01:40:26.713Z,0.98
2023-03-10T01:42:54.207Z,1.30
2023-03-10T01:45:21.194Z,0.85
2023-03-10T01:47:48.192Z,1.00
2023-03-10T01:50:16.526Z,0.93
2023-03-10T01:52:44.230Z,1.20
2023-03-10T01:55:15.425Z,0.95
2023-03-10T01:57:43.751Z,1.42
2023-03-10T02:00:12.275Z,1.10
2023-03-10T02:02:48.370Z,1.00
2023-03-10T02:05:15.325Z,1.10
2023-03-10T02:07:42.347Z,1.30
2023-03-10T02:10:10.323Z,1.30
2023-03-10T02:12:37.306Z,1.17
2023-03-10T02:15:04.834Z,1.30
2023-03-10T02:17:31.899Z,1.30
2023-03-10T02:19:59.023Z,1.20
2023-03-10T02:22:26.025Z,1.25
2023-03-10T02:24:53.592Z,1.30
2023-03-10T02:27:22.743Z,1.20
2023-03-10T02:29:59.816Z,1.35
2023-03-10T02:32:27.575Z,1.40
2023-03-10T02:34:54.733Z,1.40
2023-03-10T02:37:31.730Z,1.40
2023-03-10T02:39:58.840Z,1.27
2023-03-10T02:42:26.364Z,1.50
2023-03-10T02:44:53.387Z,1.23
2023-03-10T02:47:20.524Z,1.50
2023-03-10T02:49:47.506Z,1.33
2023-03-10T02:52:20.998Z,1.50
2023-03-10T02:54:48.149Z,1.30
2023-03-10T02:57:15.224Z,1.20
2023-03-10T02:59:42.319Z,1.42
2023-03-10T03:02:09.377Z,1.80
2023-03-10T03:04:36.462Z,1.63
2023-03-10T03:07:03.538Z,1.80
2023-03-10T03:09:30.605Z,1.48
2023-03-10T03:11:57.633Z,1.52
2023-03-10T03:14:24.631Z,1.20
2023-03-10T03:16:51.712Z,1.23
2023-03-10T03:19:18.803Z,1.33
2023-03-10T03:21:49.864Z,1.10
2023-03-10T03:24:17.910Z,1.60
2023-03-10T03:26:44.894Z,1.13
2023-03-10T03:29:12.051Z,1.30
2023-03-10T03:31:39.286Z,1.15
2023-03-10T03:34:06.355Z,1.00
2023-03-10T03:36:33.399Z,1.02
2023-03-10T03:39:00.476Z,1.30
2023-03-10T03:41:27.468Z,1.30
2023-03-10T03:43:54.534Z,1.40
2023-03-10T03:46:21.596Z,1.25
2023-03-10T03:48:48.627Z,1.00
2023-03-10T03:51:15.833Z,1.10
2023-03-10T03:53:42.872Z,1.23
2023-03-10T03:56:09.934Z,1.10
2023-03-10T03:58:37.140Z,1.10
2023-03-10T04:01:04.297Z,0.90
2023-03-10T04:03:31.384Z,0.70
2023-03-10T04:05:58.444Z,0.80
2023-03-10T04:08:25.463Z,0.90
2023-03-10T04:10:52.879Z,0.90
2023-03-10T04:13:19.920Z,1.25
2023-03-10T04:15:46.983Z,0.98
2023-03-10T04:18:14.022Z,1.13
2023-03-10T04:20:41.090Z,1.00
2023-03-10T04:23:08.582Z,0.90
2023-03-10T04:25:36.317Z,1.20
2023-03-10T04:28:03.318Z,0.98
2023-03-10T04:30:30.374Z,1.10
2023-03-10T04:32:58.751Z,0.93
2023-03-10T04:35:25.930Z,1.23
2023-03-10T04:37:53.171Z,1.33
2023-03-10T04:40:20.417Z,1.10
2023-03-10T04:42:47.569Z,1.17
2023-03-10T04:45:14.679Z,1.27
2023-03-10T04:47:41.685Z,1.02
2023-03-10T04:50:09.234Z,1.15
2023-03-10T04:52:36.253Z,1.00
2023-03-10T04:55:03.566Z,1.15
2023-03-10T04:57:30.563Z,0.88
2023-03-10T04:59:57.551Z,0.93
2023-03-10T05:02:24.550Z,1.17
2023-03-10T05:04:51.717Z,1.10
2023-03-10T05:07:18.812Z,1.10
2023-03-10T05:09:45.788Z,1.05
2023-03-10T05:12:12.837Z,1.00
2023-03-10T05:14:39.847Z,1.17
2023-03-10T05:17:06.921Z,1.10
2023-03-10T05:19:34.736Z,1.45
2023-03-10T05:22:02.163Z,1.52
2023-03-10T05:24:29.155Z,1.00
2023-03-10T05:26:56.217Z,1.20
2023-03-10T05:29:23.248Z,1.30
2023-03-10T05:31:50.262Z,1.10
2023-03-10T05:34:17.266Z,1.85
2023-03-10T05:36:44.296Z,0.90
2023-03-10T05:39:11.326Z,1.45
2023-03-10T05:41:38.488Z,1.38
2023-03-10T05:44:05.667Z,1.33
2023-03-10T05:46:32.712Z,1.58
2023-03-10T05:48:59.724Z,1.40
2023-03-10T05:51:26.702Z,1.38
2023-03-10T05:53:53.812Z,1.48
2023-03-10T05:56:20.960Z,1.52
2023-03-10T05:58:48.003Z,1.50
2023-03-10T06:01:15.255Z,1.30
2023-03-10T06:03:42.619Z,1.27
2023-03-10T06:06:09.640Z,2.22
2023-03-10T06:08:36.686Z,1.50
2023-03-10T06:11:04.345Z,1.17
2023-03-10T06:13:31.554Z,1.52
2023-03-10T06:15:59.420Z,1.15
2023-03-10T06:18:26.885Z,1.55
2023-03-10T06:20:54.060Z,1.27
2023-03-10T06:23:21.225Z,1.48
2023-03-10T06:26:01.474Z,1.38
2023-03-10T06:28:32.750Z,1.60
2023-03-10T06:31:00.343Z,1.58
2023-03-10T06:33:27.367Z,1.50
2023-03-10T06:35:54.512Z,1.80
2023-03-10T06:38:21.705Z,1.85
2023-03-10T06:40:48.897Z,2.00
2023-03-10T06:43:16.250Z,1.95
2023-03-10T06:45:43.916Z,1.75
2023-03-10T06:48:11.122Z,1.65
2023-03-10T06:50:40.926Z,2.47
2023-03-10T06:53:07.948Z,2.17
2023-03-10T06:55:34.956Z,1.98
2023-03-10T06:58:02.012Z,2.22
2023-03-10T07:00:29.410Z,1.83
2023-03-10T07:02:56.473Z,2.10
2023-03-10T07:05:24.582Z,1.77
2023-03-10T07:07:51.644Z,1.75
2023-03-10T07:10:18.865Z,2.38
2023-03-10T07:12:48.715Z,2.22
2023-03-10T07:15:15.739Z,1.90
2023-03-10T07:17:42.701Z,2.40
2023-03-10T07:20:10.099Z,2.33
2023-03-10T07:22:37.106Z,2.42
2023-03-10T07:25:04.892Z,1.95
2023-03-10T07:27:31.947Z,1.98
2023-03-10T07:29:58.922Z,2.00
2023-03-10T07:32:25.950Z,2.00
2023-03-10T07:34:52.965Z,2.10
2023-03-10T07:37:19.987Z,1.90
2023-03-10T07:39:47.065Z,1.80
2023-03-10T07:42:14.084Z,1.80
2023-03-10T07:44:41.138Z,2.03
2023-03-10T07:47:08.212Z,2.92
2023-03-10T07:49:35.242Z,2.55
2023-03-10T07:52:02.297Z,2.45
2023-03-10T07:54:29.297Z,2.60
2023-03-10T07:56:56.293Z,2.88
2023-03-10T07:59:23.310Z,2.67
2023-03-10T08:01:50.338Z,2.40
2023-03-10T08:04:17.633Z,2.80
2023-03-10T08:06:44.702Z,3.47
2023-03-10T08:09:11.733Z,3.50
2023-03-10T08:11:39.310Z,3.28
2023-03-10T08:14:06.480Z,2.45
2023-03-10T08:16:33.618Z,2.15
2023-03-10T08:19:00.701Z,2.20
2023-03-10T08:21:27.773Z,2.25
2023-03-10T08:23:54.797Z,2.30
2023-03-10T08:26:21.939Z,2.72
2023-03-10T08:28:49.124Z,4.18
2023-03-10T08:31:17.066Z,2.63
2023-03-10T08:33:44.345Z,2.25
2023-03-10T08:36:15.349Z,2.75
2023-03-10T08:38:42.427Z,2.58
2023-03-10T08:41:11.764Z,2.63
2023-03-10T08:43:38.869Z,2.45
2023-03-10T08:46:08.456Z,1.90
2023-03-10T08:48:35.732Z,1.98
2023-03-10T08:51:02.789Z,1.95
2023-03-10T08:53:29.822Z,1.73
2023-03-10T08:55:56.826Z,1.55
2023-03-10T08:58:24.510Z,2.08
2023-03-10T09:00:52.109Z,2.17
2023-03-10T09:03:19.254Z,1.95
2023-03-10T09:05:46.463Z,2.33
2023-03-10T09:08:13.622Z,2.15
2023-03-10T09:10:40.756Z,2.15
2023-03-10T09:13:14.101Z,2.28
2023-03-10T09:15:41.552Z,2.40
2023-03-10T09:18:12.156Z,2.17
2023-03-10T09:23:06.357Z,2.17
2023-03-10T09:25:33.380Z,2.00
2023-03-10T09:28:00.457Z,2.13
2023-03-10T09:30:27.431Z,2.00
2023-03-10T09:32:55.617Z,2.13
2023-03-10T09:35:22.867Z,1.58
2023-03-10T09:37:49.854Z,1.50
2023-03-10T09:40:18.331Z,1.55
2023-03-10T09:42:46.111Z,1.20
2023-03-10T09:45:31.920Z,1.20
2023-03-10T09:48:03.807Z,1.95
2023-03-10T09:50:34.970Z,1.40
2023-03-10T09:53:20.827Z,1.40
2023-03-10T09:55:49.027Z,1.63
2023-03-10T09:58:20.607Z,1.40
2023-03-10T10:00:47.613Z,1.50
2023-03-10T10:03:22.393Z,1.60
2023-03-10T10:05:50.667Z,1.52
2023-03-10T10:08:20.653Z,1.50
2023-03-10T10:10:49.102Z,1.38
2023-03-10T10:13:16.462Z,1.40
2023-03-10T10:15:45.368Z,1.27
2023-03-10T10:18:19.993Z,1.52
2023-03-10T10:20:53.704Z,1.30
2023-03-10T10:23:22.335Z,1.52
2023-03-10T10:25:50.465Z,1.38
2023-03-10T10:28:30.027Z,1.77
2023-03-10T10:31:10.179Z,1.92
2023-03-10T10:33:51.380Z,1.40
2023-03-10T10:36:18.636Z,1.23
2023-03-10T10:38:52.594Z,1.48
2023-03-10T10:41:21.361Z,1.00
2023-03-10T10:43:48.548Z,1.42
2023-03-10T10:46:17.791Z,1.40
2023-03-10T10:48:46.175Z,1.83
2023-03-10T10:51:20.381Z,1.52
2023-03-10T10:53:47.431Z,1.08
2023-03-10T10:56:15.271Z,1.30
2023-03-10T10:58:42.664Z,1.42
2023-03-10T11:01:12.365Z,0.82
2023-03-10T11:03:40.256Z,1.30
2023-03-10T11:06:19.759Z,1.20
2023-03-10T11:08:51.130Z,1.10
2023-03-10T11:11:29.415Z,0.90
2023-03-10T11:14:00.326Z,1.20
2023-03-10T11:16:46.907Z,1.17
2023-03-10T11:19:33.562Z,1.02
2023-03-10T11:22:36.121Z,0.82
2023-03-10T11:25:17.142Z,0.90
2023-03-10T11:27:46.615Z,0.70
2023-03-10T11:30:14.984Z,0.85
2023-03-10T11:32:45.863Z,0.80
2023-03-10T11:35:24.884Z,1.02
2023-03-10T11:37:52.513Z,0.80
2023-03-10T11:40:24.488Z,0.80
2023-03-10T11:43:06.962Z,0.95
2023-03-10T11:45:42.231Z,0.90
2023-03-10T11:48:34.354Z,0.60
2023-03-10T11:51:05.070Z,1.83
2023-03-10T11:54:07.824Z,1.10
2023-03-10T11:56:34.866Z,0.75
2023-03-10T11:59:10.838Z,0.70
2023-03-10T12:01:58.230Z,0.90
2023-03-10T12:04:31.313Z,0.70
2023-03-10T12:07:00.156Z,1.05
2023-03-10T12:09:47.504Z,0.80
2023-03-10T12:12:15.163Z,0.50
2023-03-10T12:14:42.244Z,0.55
2023-03-10T12:17:12.876Z,0.55
2023-03-10T12:19:58.770Z,0.50
2023-03-10T12:22:26.061Z,0.73
2023-03-10T12:24:53.247Z,0.55
2023-03-10T12:27:20.292Z,0.50
2023-03-10T12:29:47.347Z,0.63
2023-03-10T12:32:33.016Z,0.40
2023-03-10T12:35:20.045Z,0.60
2023-03-10T12:37:47.100Z,0.32
2023-03-10T12:40:33.040Z,0.50
2023-03-10T12:43:00.162Z,0.50
2023-03-10T12:45:29.260Z,0.60
2023-03-10T12:47:56.394Z,0.70
2023-03-10T12:50:43.113Z,0.57
2023-03-10T12:53:27.137Z,0.77
2023-03-10T12:56:18.690Z,0.60
2023-03-10T12:59:18.261Z,1.90
2023-03-10T13:01:55.510Z,0.63
2023-03-10T13:04:23.166Z,0.50
2023-03-10T13:06:50.250Z,0.50
2023-03-10T13:09:23.588Z,0.50
2023-03-10T13:11:56.809Z,0.50
2023-03-10T13:14:24.611Z,0.60
2023-03-10T13:16:55.528Z,0.60
2023-03-10T13:19:23.655Z,1.10
2023-03-10T13:21:51.019Z,0.60
2023-03-10T13:24:24.322Z,0.73
2023-03-10T13:27:14.407Z,0.82
2023-03-10T13:29:41.875Z,1.00
2023-03-10T13:32:17.642Z,0.50
2023-03-10T13:34:44.662Z,0.55
2023-03-10T13:37:11.797Z,0.40
2023-03-10T13:39:38.892Z,0.32
2023-03-10T13:42:19.261Z,0.28
2023-03-10T13:44:47.434Z,0.40
2023-03-10T13:47:14.476Z,0.40
2023-03-10T13:49:41.511Z,0.55
2023-03-10T13:52:09.524Z,0.50
2023-03-10T13:54:37.539Z,0.52
2023-03-10T13:57:18.718Z,0.50
2023-03-10T13:59:46.877Z,0.70
2023-03-10T14:02:16.340Z,0.50
2023-03-10T14:04:47.265Z,1.05
2023-03-10T14:07:23.365Z,0.90
2023-03-10T14:10:05.770Z,0.80
2023-03-10T14:12:35.786Z,0.50
2023-03-10T14:15:14.773Z,0.55
2023-03-10T14:17:42.433Z,0.50
2023-03-10T14:20:10.403Z,0.40
2023-03-10T14:22:43.120Z,0.40
2023-03-10T14:25:14.334Z,0.60
2023-03-10T14:27:42.657Z,0.50
2023-03-10T14:30:20.313Z,0.60
2023-03-10T14:32:47.515Z,0.50
2023-03-10T14:35:15.499Z,0.63
2023-03-10T14:37:42.592Z,0.50
2023-03-10T14:40:10.849Z,0.40
2023-03-10T14:42:37.953Z,0.52
2023-03-10T14:45:08.865Z,0.40
2023-03-10T14:47:36.240Z,0.40
2023-03-10T14:50:03.397Z,0.40
2023-03-10T14:52:30.467Z,0.40
2023-03-10T14:54:57.536Z,0.43
2023-03-10T14:57:24.743Z,0.43
2023-03-10T14:59:52.223Z,0.70
2023-03-10T15:02:23.292Z,0.90
2023-03-10T15:04:50.450Z,1.10
2023-03-10T15:07:17.680Z,0.95
2023-03-10T15:09:45.273Z,1.23
2023-03-10T15:12:13.993Z,0.90
2023-03-10T15:14:41.583Z,1.20
2023-03-10T15:17:09.896Z,1.10
2023-03-10T15:19:36.990Z,1.10
2023-03-10T15:22:04.056Z,1.27
2023-03-10T15:24:31.067Z,1.00
2023-03-10T15:26:58.212Z,1.17
2023-03-10T15:29:25.356Z,1.10
2023-03-10T15:31:52.502Z,0.65
2023-03-10T15:34:20.657Z,0.70
2023-03-10T15:36:47.904Z,0.50
2023-03-10T15:39:29.019Z,0.32
2023-03-10T15:41:58.359Z,0.50
2023-03-10T15:44:25.418Z,0.30
2023-03-10T15:46:54.900Z,0.30
2023-03-10T15:49:22.260Z,0.33
2023-03-10T15:51:49.351Z,0.30
2023-03-10T15:54:16.470Z,0.40
2023-03-10T15:56:43.508Z,0.35
2023-03-10T15:59:10.830Z,0.40
2023-03-10T16:01:37.985Z,0.20
2023-03-10T16:04:06.016Z,0.28
2023-03-10T16:06:33.676Z,0.40
2023-03-10T16:09:00.844Z,0.50
2023-03-10T16:11:27.971Z,0.20
2023-03-10T16:13:55.082Z,0.40
2023-03-10T16:16:26.336Z,0.40
2023-03-10T16:18:53.817Z,0.20
2023-03-10T16:21:21.238Z,0.30
2023-03-10T16:23:48.420Z,0.30
2023-03-10T16:26:21.922Z,0.40
2023-03-10T16:28:55.261Z,0.40
2023-03-10T16:31:23.062Z,0.40
2023-03-10T16:33:51.325Z,0.50
2023-03-10T16:36:19.448Z,0.30
2023-03-10T16:38:46.614Z,0.60
2023-03-10T16:41:13.833Z,0.40
2023-03-10T16:43:40.898Z,0.50
2023-03-10T16:46:09.305Z,0.38
2023-03-10T16:48:43.233Z,0.32
2023-03-10T16:51:30.590Z,0.50
2023-03-10T16:54:01.237Z,0.50
2023-03-10T16:56:29.002Z,0.50
2023-03-10T16:58:56.112Z,0.50
2023-03-10T17:01:26.194Z,0.40
2023-03-10T17:03:53.461Z,0.40
2023-03-10T17:06:24.760Z,0.57
2023-03-10T17:08:51.916Z,0.38
2023-03-10T17:11:26.438Z,0.57
2023-03-10T17:13:54.205Z,0.40
2023-03-10T17:16:23.377Z,0.38
2023-03-10T17:18:50.716Z,0.40
2023-03-10T17:21:18.736Z,0.60
2023-03-10T17:23:45.961Z,0.50
2023-03-10T17:26:13.505Z,0.40
2023-03-10T17:28:40.723Z,0.40
2023-03-10T17:31:10.590Z,0.40
2023-03-10T17:33:37.809Z,0.40
2023-03-10T17:36:05.842Z,0.47
2023-03-10T17:38:32.923Z,0.40
2023-03-10T17:41:00.903Z,0.40
2023-03-10T17:43:34.133Z,0.50
2023-03-10T17:46:02.406Z,0.60
2023-03-10T17:48:29.744Z,0.50
2023-03-10T17:50:57.169Z,0.40
2023-03-10T17:53:24.952Z,0.50
2023-03-10T17:55:52.114Z,0.43
2023-03-10T17:58:19.222Z,0.40
2023-03-10T18:00:46.418Z,0.70
2023-03-10T18:03:13.655Z,0.70
2023-03-10T18:05:41.216Z,0.50
2023-03-10T18:08:08.382Z,0.50
2023-03-10T18:10:35.889Z,0.50
2023-03-10T18:13:03.337Z,0.50
2023-03-10T18:15:30.420Z,0.40
2023-03-10T18:17:57.525Z,0.45
2023-03-10T18:20:24.664Z,0.60
2023-03-10T18:22:54.810Z,0.68
2023-03-10T18:25:21.881Z,0.52
2023-03-10T18:27:49.253Z,0.40
2023-03-10T18:30:16.433Z,0.40
2023-03-10T18:32:43.814Z,0.30
2023-03-10T18:35:11.360Z,0.30
2023-03-10T18:37:38.398Z,0.30
2023-03-10T18:40:09.130Z,0.30
2023-03-10T18:42:36.287Z,0.40
2023-03-10T18:45:03.397Z,0.60
2023-03-10T18:47:30.405Z,0.70
2023-03-10T18:49:58.532Z,0.80
2023-03-10T18:52:25.650Z,0.80
2023-03-10T18:54:53.225Z,1.00
2023-03-10T18:57:20.294Z,0.70
2023-03-10T18:59:47.452Z,0.90
2023-03-10T19:02:14.947Z,1.02
2023-03-10T19:04:42.152Z,1.10
2023-03-10T19:07:09.187Z,1.00
2023-03-10T19:09:36.240Z,1.25
2023-03-10T19:12:03.274Z,1.17
2023-03-10T19:14:30.287Z,1.30
2023-03-10T19:16:57.357Z,1.60
2023-03-10T19:19:24.368Z,1.38
2023-03-10T19:21:51.435Z,2.15
2023-03-10T19:24:18.498Z,1.80
2023-03-10T19:26:46.930Z,1.70
2023-03-10T19:29:13.990Z,2.00
2023-03-10T19:31:41.398Z,1.80
2023-03-10T19:34:08.677Z,1.70
2023-03-10T19:36:35.762Z,1.85
2023-03-10T19:39:02.808Z,1.73
2023-03-10T19:41:29.891Z,1.45
2023-03-10T19:43:56.931Z,1.90
2023-03-10T19:46:24.084Z,1.60
2023-03-10T19:48:51.205Z,1.80
2023-03-10T19:51:22.154Z,1.98
2023-03-10T19:53:49.396Z,2.08
2023-03-10T19:56:16.931Z,2.00
2023-03-10T19:58:44.067Z,1.98
2023-03-10T20:01:14.775Z,2.83
2023-03-10T20:03:42.120Z,2.20
2023-03-10T20:06:09.424Z,2.45
2023-03-10T20:08:37.934Z,2.40
2023-03-10T20:11:05.508Z,3.15
2023-03-10T20:13:35.857Z,2.85
2023-03-10T20:16:03.024Z,3.75
2023-03-10T20:18:30.257Z,3.47
2023-03-10T20:20:57.284Z,3.97
2023-03-10T20:23:24.364Z,3.97
2023-03-10T20:25:51.365Z,4.70
2023-03-10T20:28:18.782Z,4.45
2023-03-10T20:30:45.902Z,4.80
2023-03-10T20:33:12.967Z,4.88
2023-03-10T20:35:40.031Z,4.90
2023-03-10T20:38:07.122Z,4.85
2023-03-10T20:40:34.265Z,4.53
2023-03-10T20:43:01.363Z,5.00
2023-03-10T20:45:28.412Z,4.30
2023-03-10T20:47:55.410Z,4.35
2023-03-10T20:50:22.535Z,4.72
2023-03-10T20:52:49.683Z,4.22
2023-03-10T20:55:19.622Z,4.30
2023-03-10T20:57:47.721Z,4.78
2023-03-10T21:00:16.452Z,4.82
2023-03-10T21:02:44.484Z,5.15
2023-03-10T21:05:11.766Z,5.22
2023-03-10T21:07:38.821Z,5.57
2023-03-10T21:10:06.282Z,5.22
2023-03-10T21:12:33.365Z,5.47
2023-03-10T21:15:00.458Z,5.57
2023-03-10T21:17:27.821Z,4.78
2023-03-10T21:19:55.191Z,5.70
2023-03-10T21:22:22.452Z,5.18
2023-03-10T21:24:49.513Z,5.40
2023-03-10T21:27:16.819Z,5.30
2023-03-10T21:29:44.109Z,5.18
2023-03-10T21:32:11.136Z,5.22
2023-03-10T21:34:38.931Z,6.03
2023-03-10T21:37:06.184Z,6.28
2023-03-10T21:39:33.200Z,5.70
2023-03-10T21:42:00.261Z,5.72
2023-03-10T21:44:27.327Z,5.05
2023-03-10T21:46:54.355Z,6.00
2023-03-10T21:49:21.919Z,5.28
2023-03-10T21:51:49.068Z,4.88
2023-03-10T21:54:16.220Z,4.78
2023-03-10T21:56:43.285Z,4.63
2023-03-10T21:59:10.478Z,4.45
2023-03-10T22:01:38.471Z,4.40
2023-03-10T22:04:05.649Z,3.90
2023-03-10T22:06:32.725Z,4.22
2023-03-10T22:08:59.738Z,3.97
2023-03-10T22:11:26.887Z,3.75
2023-03-10T22:13:54.374Z,3.83
2023-03-10T22:16:21.429Z,3.28
2023-03-10T22:18:49.547Z,3.05
2023-03-10T22:21:17.183Z,2.95
2023-03-10T22:23:44.376Z,3.40
2023-03-10T22:26:11.945Z,3.38
2023-03-10T22:28:39.271Z,3.10
2023-03-10T22:31:07.138Z,3.00
2023-03-10T22:33:34.246Z,2.80
2023-03-10T22:36:05.188Z,2.83
2023-03-10T22:38:32.349Z,2.78
2023-03-10T22:40:59.534Z,2.65
2023-03-10T22:43:26.773Z,2.60
2023-03-10T22:45:56.526Z,2.35
2023-03-10T22:48:23.630Z,2.13
2023-03-10T22:50:50.717Z,2.25
2023-03-10T22:53:18.398Z,2.30
2023-03-10T22:55:46.490Z,2.28
2023-03-10T22:58:14.306Z,2.15
2023-03-10T23:00:42.402Z,2.47
2023-03-10T23:03:11.676Z,2.47
2023-03-10T23:05:38.828Z,2.30
2023-03-10T23:08:06.951Z,2.50
2023-03-10T23:10:34.561Z,2.20
2023-03-10T23:13:02.285Z,2.20
2023-03-10T23:15:30.796Z,2.05
2023-03-10T23:17:57.909Z,1.95
2023-03-10T23:20:27.308Z,2.10
2023-03-10T23:22:54.787Z,1.80
2023-03-10T23:25:26.113Z,2.30
2023-03-10T23:27:53.142Z,1.83
2023-03-10T23:30:20.398Z,1.80
2023-03-10T23:32:48.122Z,1.70
2023-03-10T23:35:16.015Z,1.80
2023-03-10T23:37:43.336Z,1.92
2023-03-10T23:40:11.536Z,1.60
2023-03-10T23:42:38.747Z,7.25
2023-03-10T23:45:06.302Z,2.40
2023-03-10T23:47:33.769Z,2.45
2023-03-10T23:50:00.844Z,2.55
2023-03-10T23:52:27.938Z,2.92
2023-03-10T23:54:55.026Z,3.58
2023-03-10T23:57:22.190Z,3.85
2023-03-10T23:59:49.633Z,3.70
